sensor_id;sensor_type;location;lat;lon;timestamp;pressure;altitude;pressure_sealevel;temperature;humidity
68145;BME280;55400;51.824;-0.196;2022-09-13T00:02:06;100167.97;;;19.51;70.84
68145;BME280;55400;51.824;-0.196;2022-09-13T00:04:36;100169.09;;;19.48;70.83
68145;BME280;55400;51.824;-0.196;2022-09-13T00:07:14;100159.69;;;19.44;70.83
68145;BME280;55400;51.824;-0.196;2022-09-13T00:09:45;100166.00;;;19.43;71.18
68145;BME280;55400;51.824;-0.196;2022-09-13T00:12:21;100152.78;;;19.41;70.99
68145;BME280;55400;51.824;-0.196;2022-09-13T00:14:49;100155.59;;;19.40;71.30
68145;BME280;55400;51.824;-0.196;2022-09-13T00:17:29;100153.06;;;19.38;71.28
68145;BME280;55400;51.824;-0.196;2022-09-13T00:19:59;100144.34;;;19.36;71.15
68145;BME280;55400;51.824;-0.196;2022-09-13T00:22:26;100139.81;;;19.37;71.19
68145;BME280;55400;51.824;-0.196;2022-09-13T00:24:54;100144.34;;;19.36;71.02
68145;BME280;55400;51.824;-0.196;2022-09-13T00:27:22;100153.19;;;19.37;71.10
68145;BME280;55400;51.824;-0.196;2022-09-13T00:29:56;100145.31;;;19.35;70.96
68145;BME280;55400;51.824;-0.196;2022-09-13T00:32:29;100148.81;;;19.36;70.72
68145;BME280;55400;51.824;-0.196;2022-09-13T00:35:06;100151.50;;;19.36;71.15
68145;BME280;55400;51.824;-0.196;2022-09-13T00:37:33;100152.38;;;19.36;71.09
68145;BME280;55400;51.824;-0.196;2022-09-13T00:40:02;100149.69;;;19.36;71.04
68145;BME280;55400;51.824;-0.196;2022-09-13T00:42:31;100147.16;;;19.35;70.92
68145;BME280;55400;51.824;-0.196;2022-09-13T00:45:16;100151.78;;;19.33;71.30
68145;BME280;55400;51.824;-0.196;2022-09-13T00:48:03;100149.25;;;19.31;71.38
68145;BME280;55400;51.824;-0.196;2022-09-13T00:50:44;100162.19;;;19.26;71.50
68145;BME280;55400;51.824;-0.196;2022-09-13T00:53:30;100163.16;;;19.25;71.42
68145;BME280;55400;51.824;-0.196;2022-09-13T00:56:05;100170.47;;;19.23;71.47
68145;BME280;55400;51.824;-0.196;2022-09-13T00:58:56;100173.44;;;19.20;71.92
68145;BME280;55400;51.824;-0.196;2022-09-13T01:01:39;100170.06;;;19.18;71.94
68145;BME280;55400;51.824;-0.196;2022-09-13T01:04:25;100162.88;;;19.18;71.84
68145;BME280;55400;51.824;-0.196;2022-09-13T01:07:01;100166.53;;;19.17;71.98
68145;BME280;55400;51.824;-0.196;2022-09-13T01:09:34;100175.41;;;19.18;71.90
68145;BME280;55400;51.824;-0.196;2022-09-13T01:12:33;100181.84;;;19.15;72.04
68145;BME280;55400;51.824;-0.196;2022-09-13T01:15:05;100179.31;;;19.14;72.25
68145;BME280;55400;51.824;-0.196;2022-09-13T01:17:42;100176.66;;;19.14;72.44
68145;BME280;55400;51.824;-0.196;2022-09-13T01:20:12;100177.75;;;19.11;72.15
68145;BME280;55400;51.824;-0.196;2022-09-13T01:29:39;100178.31;;;19.05;72.66
68145;BME280;55400;51.824;-0.196;2022-09-13T01:32:20;100176.63;;;19.04;72.66
68145;BME280;55400;51.824;-0.196;2022-09-13T01:35:22;100171.28;;;19.04;72.56
68145;BME280;55400;51.824;-0.196;2022-09-13T01:38:06;100169.72;;;19.01;72.95
68145;BME280;55400;51.824;-0.196;2022-09-13T01:43:52;100178.03;;;18.98;72.79
68145;BME280;55400;51.824;-0.196;2022-09-13T01:52:48;100149.72;;;18.86;72.91
68145;BME280;55400;51.824;-0.196;2022-09-13T01:58:45;100163.53;;;18.91;72.60
68145;BME280;55400;51.824;-0.196;2022-09-13T02:01:28;100153.97;;;18.88;72.56
68145;BME280;55400;51.824;-0.196;2022-09-13T02:04:00;100139.41;;;18.81;72.85
68145;BME280;55400;51.824;-0.196;2022-09-13T02:06:33;100137.47;;;18.83;72.93
68145;BME280;55400;51.824;-0.196;2022-09-13T02:09:03;100150.97;;;18.82;72.92
68145;BME280;55400;51.824;-0.196;2022-09-13T02:11:36;100147.44;;;18.81;72.72
68145;BME280;55400;51.824;-0.196;2022-09-13T02:16:48;100144.34;;;18.76;72.68
68145;BME280;55400;51.824;-0.196;2022-09-13T02:19:23;100132.34;;;18.70;72.71
68145;BME280;55400;51.824;-0.196;2022-09-13T02:21:55;100130.97;;;18.66;72.76
68145;BME280;55400;51.824;-0.196;2022-09-13T02:24:31;100136.28;;;18.66;73.08
68145;BME280;55400;51.824;-0.196;2022-09-13T02:27:02;100149.25;;;18.71;72.74
68145;BME280;55400;51.824;-0.196;2022-09-13T02:29:31;100147.69;;;18.68;72.90
68145;BME280;55400;51.824;-0.196;2022-09-13T02:32:17;100145.16;;;18.67;72.87
68145;BME280;55400;51.824;-0.196;2022-09-13T02:34:53;100139.25;;;18.63;72.86
68145;BME280;55400;51.824;-0.196;2022-09-13T02:37:25;100150.63;;;18.65;72.65
68145;BME280;55400;51.824;-0.196;2022-09-13T02:39:58;100151.44;;;18.66;72.60
68145;BME280;55400;51.824;-0.196;2022-09-13T02:42:32;100150.63;;;18.65;72.68
68145;BME280;55400;51.824;-0.196;2022-09-13T02:45:02;100144.28;;;18.57;72.49
68145;BME280;55400;51.824;-0.196;2022-09-13T02:47:43;100144.56;;;18.63;72.36
68145;BME280;55400;51.824;-0.196;2022-09-13T02:55:41;100153.00;;;18.59;72.55
68145;BME280;55400;51.824;-0.196;2022-09-13T02:58:18;100163.66;;;18.59;72.03
68145;BME280;55400;51.824;-0.196;2022-09-13T03:00:53;100154.22;;;18.55;72.22
68145;BME280;55400;51.824;-0.196;2022-09-13T03:03:20;100161.28;;;18.56;72.73
68145;BME280;55400;51.824;-0.196;2022-09-13T03:05:47;100156.75;;;18.56;72.36
68145;BME280;55400;51.824;-0.196;2022-09-13T03:08:16;100151.13;;;18.49;72.35
68145;BME280;55400;51.824;-0.196;2022-09-13T03:22:06;100156.09;;;18.33;72.79
68145;BME280;55400;51.824;-0.196;2022-09-13T03:30:34;100163.25;;;18.32;72.02
68145;BME280;55400;51.824;-0.196;2022-09-13T03:38:44;100162.28;;;18.33;72.60
68145;BME280;55400;51.824;-0.196;2022-09-13T03:41:23;100147.66;;;18.28;72.05
68145;BME280;55400;51.824;-0.196;2022-09-13T03:44:00;100148.09;;;18.33;72.45
68145;BME280;55400;51.824;-0.196;2022-09-13T03:46:35;100154.56;;;18.30;72.20
68145;BME280;55400;51.824;-0.196;2022-09-13T03:49:07;100157.50;;;18.27;72.18
68145;BME280;55400;51.824;-0.196;2022-09-13T03:51:34;100153.50;;;18.22;72.36
68145;BME280;55400;51.824;-0.196;2022-09-13T03:54:04;100155.78;;;18.26;72.26
68145;BME280;55400;51.824;-0.196;2022-09-13T03:56:32;100158.59;;;18.25;72.34
68145;BME280;55400;51.824;-0.196;2022-09-13T03:58:58;100155.22;;;18.23;71.85
68145;BME280;55400;51.824;-0.196;2022-09-13T04:01:25;100159.56;;;18.24;72.20
68145;BME280;55400;51.824;-0.196;2022-09-13T04:03:52;100168.56;;;18.23;72.02
68145;BME280;55400;51.824;-0.196;2022-09-13T04:06:22;100180.06;;;18.23;72.21
68145;BME280;55400;51.824;-0.196;2022-09-13T04:08:49;100188.47;;;18.19;71.75
68145;BME280;55400;51.824;-0.196;2022-09-13T04:11:16;100179.06;;;18.14;72.02
68145;BME280;55400;51.824;-0.196;2022-09-13T04:13:42;100183.53;;;18.14;71.79
68145;BME280;55400;51.824;-0.196;2022-09-13T04:16:09;100177.88;;;18.07;71.66
68145;BME280;55400;51.824;-0.196;2022-09-13T04:18:36;100195.31;;;18.11;71.67
68145;BME280;55400;51.824;-0.196;2022-09-13T04:21:03;100187.72;;;18.07;71.27
68145;BME280;55400;51.824;-0.196;2022-09-13T04:23:30;100185.03;;;18.07;70.93
68145;BME280;55400;51.824;-0.196;2022-09-13T04:26:02;100194.84;;;18.06;70.92
68145;BME280;55400;51.824;-0.196;2022-09-13T04:28:28;100191.34;;;18.06;71.02
68145;BME280;55400;51.824;-0.196;2022-09-13T04:30:56;100181.31;;;17.98;70.53
68145;BME280;55400;51.824;-0.196;2022-09-13T04:33:22;100195.09;;;18.03;70.11
68145;BME280;55400;51.824;-0.196;2022-09-13T04:35:56;100195.38;;;18.00;69.79
68145;BME280;55400;51.824;-0.196;2022-09-13T04:38:23;100200.13;;;17.96;69.47
68145;BME280;55400;51.824;-0.196;2022-09-13T04:40:53;100188.38;;;17.88;69.36
68145;BME280;55400;51.824;-0.196;2022-09-13T04:43:21;100191.94;;;17.88;68.99
68145;BME280;55400;51.824;-0.196;2022-09-13T04:45:47;100200.03;;;17.87;69.18
68145;BME280;55400;51.824;-0.196;2022-09-13T04:48:15;100199.69;;;17.80;68.80
68145;BME280;55400;51.824;-0.196;2022-09-13T04:50:42;100204.91;;;17.81;68.86
68145;BME280;55400;51.824;-0.196;2022-09-13T04:53:08;100199.69;;;17.80;68.36
68145;BME280;55400;51.824;-0.196;2022-09-13T04:55:35;100209.06;;;17.74;68.46
68145;BME280;55400;51.824;-0.196;2022-09-13T04:58:02;100205.94;;;17.69;67.51
68145;BME280;55400;51.824;-0.196;2022-09-13T05:00:30;100206.19;;;17.66;67.67
68145;BME280;55400;51.824;-0.196;2022-09-13T05:02:57;100210.91;;;17.62;67.59
68145;BME280;55400;51.824;-0.196;2022-09-13T05:05:23;100218.19;;;17.60;67.48
68145;BME280;55400;51.824;-0.196;2022-09-13T05:07:51;100216.28;;;17.51;67.09
68145;BME280;55400;51.824;-0.196;2022-09-13T05:10:18;100218.22;;;17.49;67.10
68145;BME280;55400;51.824;-0.196;2022-09-13T05:12:45;100224.28;;;17.51;66.74
68145;BME280;55400;51.824;-0.196;2022-09-13T05:15:12;100220.69;;;17.41;67.04
68145;BME280;55400;51.824;-0.196;2022-09-13T05:17:38;100239.19;;;17.42;67.15
68145;BME280;55400;51.824;-0.196;2022-09-13T05:20:05;100224.81;;;17.34;66.97
68145;BME280;55400;51.824;-0.196;2022-09-13T05:22:32;100235.47;;;17.34;66.63
68145;BME280;55400;51.824;-0.196;2022-09-13T05:24:59;100230.63;;;17.27;66.50
68145;BME280;55400;51.824;-0.196;2022-09-13T05:27:26;100230.06;;;17.24;66.02
68145;BME280;55400;51.824;-0.196;2022-09-13T05:29:52;100235.97;;;17.27;66.10
68145;BME280;55400;51.824;-0.196;2022-09-13T05:32:19;100243.25;;;17.25;66.19
68145;BME280;55400;51.824;-0.196;2022-09-13T05:34:46;100250.75;;;17.20;65.67
68145;BME280;55400;51.824;-0.196;2022-09-13T05:37:13;100239.75;;;17.14;65.69
68145;BME280;55400;51.824;-0.196;2022-09-13T05:39:39;100231.78;;;17.02;65.78
68145;BME280;55400;51.824;-0.196;2022-09-13T05:42:26;100225.34;;;17.05;66.34
68145;BME280;55400;51.824;-0.196;2022-09-13T05:44:53;100240.34;;;17.06;66.46
68145;BME280;55400;51.824;-0.196;2022-09-13T05:47:19;100242.31;;;17.04;66.00
68145;BME280;55400;51.824;-0.196;2022-09-13T05:49:46;100243.38;;;17.01;66.31
68145;BME280;55400;51.824;-0.196;2022-09-13T05:52:33;100253.44;;;16.98;65.92
68145;BME280;55400;51.824;-0.196;2022-09-13T05:55:00;100258.19;;;16.94;66.31
68145;BME280;55400;51.824;-0.196;2022-09-13T05:57:26;100256.00;;;16.88;66.11
68145;BME280;55400;51.824;-0.196;2022-09-13T05:59:53;100253.66;;;16.83;65.67
68145;BME280;55400;51.824;-0.196;2022-09-13T06:02:20;100253.66;;;16.83;65.75
68145;BME280;55400;51.824;-0.196;2022-09-13T06:04:46;100257.28;;;16.82;65.73
68145;BME280;55400;51.824;-0.196;2022-09-13T06:07:13;100252.19;;;16.79;65.12
68145;BME280;55400;51.824;-0.196;2022-09-13T06:09:40;100257.53;;;16.79;65.43
68145;BME280;55400;51.824;-0.196;2022-09-13T06:12:06;100243.72;;;16.74;64.87
68145;BME280;55400;51.824;-0.196;2022-09-13T06:14:33;100253.91;;;16.80;65.17
68145;BME280;55400;51.824;-0.196;2022-09-13T06:17:00;100258.47;;;16.78;64.92
68145;BME280;55400;51.824;-0.196;2022-09-13T06:19:26;100262.84;;;16.79;64.97
68145;BME280;55400;51.824;-0.196;2022-09-13T06:21:53;100263.69;;;16.80;64.52
68145;BME280;55400;51.824;-0.196;2022-09-13T06:24:20;100259.22;;;16.80;64.99
68145;BME280;55400;51.824;-0.196;2022-09-13T06:26:46;100261.88;;;16.80;64.64
68145;BME280;55400;51.824;-0.196;2022-09-13T06:29:13;100252.44;;;16.76;64.38
68145;BME280;55400;51.824;-0.196;2022-09-13T06:31:40;100259.22;;;16.80;64.21
68145;BME280;55400;51.824;-0.196;2022-09-13T06:34:11;100243.72;;;16.74;63.98
68145;BME280;55400;51.824;-0.196;2022-09-13T06:36:42;100243.50;;;16.77;64.07
68145;BME280;55400;51.824;-0.196;2022-09-13T06:39:08;100243.72;;;16.74;63.76
68145;BME280;55400;51.824;-0.196;2022-09-13T06:41:35;100236.22;;;16.68;64.15
68145;BME280;55400;51.824;-0.196;2022-09-13T06:44:03;100242.63;;;16.65;63.75
68145;BME280;55400;51.824;-0.196;2022-09-13T06:46:32;100237.06;;;16.68;63.76
68145;BME280;55400;51.824;-0.196;2022-09-13T06:49:02;100238.78;;;16.69;63.33
68145;BME280;55400;51.824;-0.196;2022-09-13T06:51:30;100235.47;;;16.66;64.07
68145;BME280;55400;51.824;-0.196;2022-09-13T06:53:57;100240.56;;;16.58;63.43
68145;BME280;55400;51.824;-0.196;2022-09-13T06:56:33;100232.34;;;16.61;64.01
68145;BME280;55400;51.824;-0.196;2022-09-13T06:59:02;100230.66;;;16.60;63.70
68145;BME280;55400;51.824;-0.196;2022-09-13T07:01:37;100234.28;;;16.59;63.55
68145;BME280;55400;51.824;-0.196;2022-09-13T07:04:07;100242.97;;;16.61;63.53
68145;BME280;55400;51.824;-0.196;2022-09-13T07:06:36;100252.44;;;16.65;63.53
68145;BME280;55400;51.824;-0.196;2022-09-13T07:09:05;100238.50;;;16.61;63.61
68145;BME280;55400;51.824;-0.196;2022-09-13T07:11:36;100239.59;;;16.59;63.04
68145;BME280;55400;51.824;-0.196;2022-09-13T07:14:03;100244.94;;;16.59;63.44
68145;BME280;55400;51.824;-0.196;2022-09-13T07:16:34;100246.13;;;16.66;62.60
68145;BME280;55400;51.824;-0.196;2022-09-13T07:19:06;100242.16;;;16.60;62.73
68145;BME280;55400;51.824;-0.196;2022-09-13T07:21:34;100246.63;;;16.60;62.50
68145;BME280;55400;51.824;-0.196;2022-09-13T07:24:01;100253.50;;;16.62;62.91
68145;BME280;55400;51.824;-0.196;2022-09-13T07:26:28;100249.28;;;16.60;62.78
68145;BME280;55400;51.824;-0.196;2022-09-13T07:28:57;100251.44;;;16.66;62.96
68145;BME280;55400;51.824;-0.196;2022-09-13T07:31:51;100246.00;;;16.67;62.57
68145;BME280;55400;51.824;-0.196;2022-09-13T07:34:19;100250.13;;;16.71;62.82
68145;BME280;55400;51.824;-0.196;2022-09-13T07:36:47;100226.06;;;16.62;62.69
68145;BME280;55400;51.824;-0.196;2022-09-13T07:39:15;100231.03;;;16.66;62.18
68145;BME280;55400;51.824;-0.196;2022-09-13T07:41:48;100231.50;;;16.71;62.09
68145;BME280;55400;51.824;-0.196;2022-09-13T07:44:14;100218.66;;;16.65;62.21
68145;BME280;55400;51.824;-0.196;2022-09-13T07:46:41;100227.13;;;16.70;62.09
68145;BME280;55400;51.824;-0.196;2022-09-13T07:49:13;100222.78;;;16.69;62.46
68145;BME280;55400;51.824;-0.196;2022-09-13T07:51:41;100227.88;;;16.72;62.39
68145;BME280;55400;51.824;-0.196;2022-09-13T07:54:09;100224.34;;;16.61;62.01
68145;BME280;55400;51.824;-0.196;2022-09-13T07:56:37;100237.91;;;16.58;62.31
68145;BME280;55400;51.824;-0.196;2022-09-13T07:59:07;100243.09;;;16.59;62.45
68145;BME280;55400;51.824;-0.196;2022-09-13T08:01:43;100231.13;;;16.53;62.45
68145;BME280;55400;51.824;-0.196;2022-09-13T08:04:16;100227.25;;;16.58;62.39
68145;BME280;55400;51.824;-0.196;2022-09-13T08:06:44;100221.56;;;16.62;62.83
68145;BME280;55400;51.824;-0.196;2022-09-13T08:09:12;100208.75;;;16.56;62.38
68145;BME280;55400;51.824;-0.196;2022-09-13T08:11:41;100214.53;;;16.61;62.57
68145;BME280;55400;51.824;-0.196;2022-09-13T08:14:10;100215.88;;;16.67;62.06
68145;BME280;55400;51.824;-0.196;2022-09-13T08:16:38;100210.56;;;16.67;62.10
68145;BME280;55400;51.824;-0.196;2022-09-13T08:19:06;100215.66;;;16.70;62.20
68145;BME280;55400;51.824;-0.196;2022-09-13T08:21:37;100200.63;;;16.69;61.98
68145;BME280;55400;51.824;-0.196;2022-09-13T08:24:05;100189.84;;;16.70;62.49
68145;BME280;55400;51.824;-0.196;2022-09-13T08:26:34;100189.50;;;16.75;62.11
68145;BME280;55400;51.824;-0.196;2022-09-13T08:29:04;100181.63;;;16.73;62.12
68145;BME280;55400;51.824;-0.196;2022-09-13T08:31:32;100178.84;;;16.75;62.24
68145;BME280;55400;51.824;-0.196;2022-09-13T08:33:59;100171.59;;;16.77;62.44
68145;BME280;55400;51.824;-0.196;2022-09-13T08:36:27;100175.94;;;16.78;62.41
68145;BME280;55400;51.824;-0.196;2022-09-13T08:38:57;100186.75;;;16.88;62.54
68145;BME280;55400;51.824;-0.196;2022-09-13T08:46:44;100220.16;;;16.92;62.32
68145;BME280;55400;51.824;-0.196;2022-09-13T08:49:19;100218.22;;;16.94;61.97
68145;BME280;55400;51.824;-0.196;2022-09-13T08:52:31;100228.88;;;16.94;62.24
68145;BME280;55400;51.824;-0.196;2022-09-13T08:55:02;100230.56;;;16.95;62.55
68145;BME280;55400;51.824;-0.196;2022-09-13T08:57:44;100239.75;;;17.02;62.20
68145;BME280;55400;51.824;-0.196;2022-09-13T09:00:39;100227.88;;;17.06;62.30
68145;BME280;55400;51.824;-0.196;2022-09-13T09:03:27;100233.81;;;17.10;62.03
68145;BME280;55400;51.824;-0.196;2022-09-13T09:05:57;100225.97;;;17.08;62.23
68145;BME280;55400;51.824;-0.196;2022-09-13T09:11:02;100232.72;;;17.13;62.08
68145;BME280;55400;51.824;-0.196;2022-09-13T09:13:43;100224.25;;;17.07;62.13
68145;BME280;55400;51.824;-0.196;2022-09-13T09:16:44;100236.38;;;17.12;61.54
68145;BME280;55400;51.824;-0.196;2022-09-13T09:21:40;100237.78;;;17.16;62.07
68145;BME280;55400;51.824;-0.196;2022-09-13T09:24:16;100232.59;;;17.14;62.21
68145;BME280;55400;51.824;-0.196;2022-09-13T09:26:44;100242.50;;;17.23;62.27
68145;BME280;55400;51.824;-0.196;2022-09-13T09:31:43;100235.72;;;17.31;61.97
68145;BME280;55400;51.824;-0.196;2022-09-13T09:36:57;100230.28;;;17.32;61.55
68145;BME280;55400;51.824;-0.196;2022-09-13T09:39:29;100219.47;;;17.34;61.67
68145;BME280;55400;51.824;-0.196;2022-09-13T09:41:59;100220.94;;;17.38;61.77
68145;BME280;55400;51.824;-0.196;2022-09-13T09:44:27;100210.66;;;17.33;61.72
68145;BME280;55400;51.824;-0.196;2022-09-13T09:49:38;100214.88;;;17.36;61.38
68145;BME280;55400;51.824;-0.196;2022-09-13T09:52:30;100220.06;;;17.37;61.30
68145;BME280;55400;51.824;-0.196;2022-09-13T09:55:11;100219.81;;;17.40;61.45
68145;BME280;55400;51.824;-0.196;2022-09-13T09:57:56;100211.56;;;17.43;61.75
68145;BME280;55400;51.824;-0.196;2022-09-13T10:00:29;100208.19;;;17.41;61.40
68145;BME280;55400;51.824;-0.196;2022-09-13T10:02:59;100216.28;;;17.51;61.40
68145;BME280;55400;51.824;-0.196;2022-09-13T10:05:28;100204.53;;;17.54;61.64
68145;BME280;55400;51.824;-0.196;2022-09-13T10:08:05;100190.13;;;17.45;61.18
68145;BME280;55400;51.824;-0.196;2022-09-13T10:10:39;100182.22;;;17.55;61.44
68145;BME280;55400;51.824;-0.196;2022-09-13T10:13:20;100182.22;;;17.55;61.22
68145;BME280;55400;51.824;-0.196;2022-09-13T10:18:43;100178.47;;;17.57;61.28
68145;BME280;55400;51.824;-0.196;2022-09-13T10:23:44;100187.91;;;17.61;61.05
68145;BME280;55400;51.824;-0.196;2022-09-13T10:26:22;100197.31;;;17.66;61.19
68145;BME280;55400;51.824;-0.196;2022-09-13T10:29:07;100190.44;;;17.63;60.91
68145;BME280;55400;51.824;-0.196;2022-09-13T10:31:37;100190.19;;;17.66;60.87
68145;BME280;55400;51.824;-0.196;2022-09-13T10:34:12;100181.19;;;17.67;61.20
68145;BME280;55400;51.824;-0.196;2022-09-13T10:36:50;100188.09;;;17.70;61.21
68145;BME280;55400;51.824;-0.196;2022-09-13T10:39:21;100187.41;;;17.68;61.27
68145;BME280;55400;51.824;-0.196;2022-09-13T10:41:57;100187.41;;;17.68;61.18
68145;BME280;55400;51.824;-0.196;2022-09-13T10:47:23;100191.59;;;17.70;61.46
68145;BME280;55400;51.824;-0.196;2022-09-13T10:49:53;100177.94;;;17.63;61.10
68145;BME280;55400;51.824;-0.196;2022-09-13T10:52:26;100190.78;;;17.70;61.38
68145;BME280;55400;51.824;-0.196;2022-09-13T10:54:54;100204.28;;;17.78;61.26
68145;BME280;55400;51.824;-0.196;2022-09-13T10:57:34;100208.53;;;17.80;61.28
68145;BME280;55400;51.824;-0.196;2022-09-13T11:00:05;100197.16;;;17.78;61.36
68145;BME280;55400;51.824;-0.196;2022-09-13T11:05:20;100214.59;;;17.83;61.65
68145;BME280;55400;51.824;-0.196;2022-09-13T11:16:46;100234.81;;;17.96;60.97
68145;BME280;55400;51.824;-0.196;2022-09-13T11:19:41;100233.72;;;17.99;61.22
68145;BME280;55400;51.824;-0.196;2022-09-13T11:28:14;100234.47;;;18.11;61.19
68145;BME280;55400;51.824;-0.196;2022-09-13T11:33:56;100221.00;;;18.12;61.40
68145;BME280;55400;51.824;-0.196;2022-09-13T11:39:29;100228.94;;;18.24;60.99
68145;BME280;55400;51.824;-0.196;2022-09-13T11:50:41;100226.78;;;18.39;61.17
68145;BME280;55400;51.824;-0.196;2022-09-13T11:53:51;100225.97;;;18.38;60.46
68145;BME280;55400;51.824;-0.196;2022-09-13T12:01:36;100235.47;;;18.52;60.43
68145;BME280;55400;51.824;-0.196;2022-09-13T12:04:08;100227.84;;;18.47;60.66
68145;BME280;55400;51.824;-0.196;2022-09-13T12:06:41;100241.22;;;18.57;60.47
68145;BME280;55400;51.824;-0.196;2022-09-13T12:09:24;100238.81;;;18.54;59.78
68145;BME280;55400;51.824;-0.196;2022-09-13T12:12:01;100242.94;;;18.58;60.16
68145;BME280;55400;51.824;-0.196;2022-09-13T12:14:45;100236.47;;;18.61;59.81
68145;BME280;55400;51.824;-0.196;2022-09-13T12:19:50;100249.72;;;18.72;59.58
68145;BME280;55400;51.824;-0.196;2022-09-13T12:22:23;100246.91;;;18.74;59.44
68145;BME280;55400;51.824;-0.196;2022-09-13T12:24:58;100251.03;;;18.78;59.42
68145;BME280;55400;51.824;-0.196;2022-09-13T12:27:42;100252.47;;;18.82;59.29
68145;BME280;55400;51.824;-0.196;2022-09-13T12:30:17;100243.44;;;18.83;59.14
68145;BME280;55400;51.824;-0.196;2022-09-13T12:32:46;100244.09;;;18.86;59.11
68145;BME280;55400;51.824;-0.196;2022-09-13T12:35:32;100246.34;;;18.91;58.86
68145;BME280;55400;51.824;-0.196;2022-09-13T12:41:22;100242.28;;;18.97;59.13
68145;BME280;55400;51.824;-0.196;2022-09-13T12:56:02;100202.88;;;18.89;59.69
68145;BME280;55400;51.824;-0.196;2022-09-13T13:01:44;100220.91;;;18.97;59.74
68145;BME280;55400;51.824;-0.196;2022-09-13T13:04:18;100225.28;;;18.98;59.78
68145;BME280;55400;51.824;-0.196;2022-09-13T13:06:54;100217.13;;;18.99;60.43
68145;BME280;55400;51.824;-0.196;2022-09-13T13:12:37;100202.94;;;18.99;60.57
68145;BME280;55400;51.824;-0.196;2022-09-13T13:17:56;100205.63;;;19.09;60.65
68145;BME280;55400;51.824;-0.196;2022-09-13T13:21:02;100201.94;;;19.10;60.49
68145;BME280;55400;51.824;-0.196;2022-09-13T13:23:33;100192.00;;;19.12;60.44
68145;BME280;55400;51.824;-0.196;2022-09-13T13:26:08;100193.78;;;19.11;60.46
68145;BME280;55400;51.824;-0.196;2022-09-13T13:36:29;100185.78;;;19.11;60.03
68145;BME280;55400;51.824;-0.196;2022-09-13T13:38:59;100187.47;;;19.12;60.38
68145;BME280;55400;51.824;-0.196;2022-09-13T13:49:49;100173.16;;;19.13;59.38
68145;BME280;55400;51.824;-0.196;2022-09-13T13:57:56;100167.81;;;19.13;59.47
68145;BME280;55400;51.824;-0.196;2022-09-13T14:00:28;100170.34;;;19.15;59.59
68145;BME280;55400;51.824;-0.196;2022-09-13T14:03:31;100167.53;;;19.16;59.33
68145;BME280;55400;51.824;-0.196;2022-09-13T14:20:08;100164.16;;;19.24;59.23
68145;BME280;55400;51.824;-0.196;2022-09-13T14:22:36;100160.06;;;19.20;58.93
68145;BME280;55400;51.824;-0.196;2022-09-13T14:25:23;100147.25;;;19.14;58.91
68145;BME280;55400;51.824;-0.196;2022-09-13T14:27:55;100158.69;;;19.26;59.40
68145;BME280;55400;51.824;-0.196;2022-09-13T14:30:36;100155.00;;;19.27;58.89
68145;BME280;55400;51.824;-0.196;2022-09-13T14:33:04;100145.19;;;19.27;59.42
68145;BME280;55400;51.824;-0.196;2022-09-13T14:35:36;100125.88;;;19.23;59.12
68145;BME280;55400;51.824;-0.196;2022-09-13T14:38:18;100135.19;;;19.29;59.24
68145;BME280;55400;51.824;-0.196;2022-09-13T14:40:51;100137.28;;;19.26;59.08
68145;BME280;55400;51.824;-0.196;2022-09-13T14:43:21;100139.56;;;19.30;59.29
68145;BME280;55400;51.824;-0.196;2022-09-13T14:45:51;100134.50;;;19.27;59.09
68145;BME280;55400;51.824;-0.196;2022-09-13T14:51:14;100126.31;;;19.29;58.75
68145;BME280;55400;51.824;-0.196;2022-09-13T14:53:46;100131.25;;;19.33;58.54
68145;BME280;55400;51.824;-0.196;2022-09-13T14:56:35;100131.53;;;19.30;58.41
68145;BME280;55400;51.824;-0.196;2022-09-13T14:59:22;100129.69;;;19.31;58.79
68145;BME280;55400;51.824;-0.196;2022-09-13T15:01:52;100124.50;;;19.29;58.53
68145;BME280;55400;51.824;-0.196;2022-09-13T15:04:19;100118.31;;;19.29;58.64
68145;BME280;55400;51.824;-0.196;2022-09-13T15:07:05;100122.94;;;19.27;58.76
68145;BME280;55400;51.824;-0.196;2022-09-13T15:09:34;100126.19;;;19.30;58.80
68145;BME280;55400;51.824;-0.196;2022-09-13T15:12:03;100115.91;;;19.26;58.63
68145;BME280;55400;51.824;-0.196;2022-09-13T15:14:35;100120.97;;;19.29;58.80
68145;BME280;55400;51.824;-0.196;2022-09-13T15:19:48;100120.13;;;19.28;58.99
68145;BME280;55400;51.824;-0.196;2022-09-13T15:22:22;100106.47;;;19.21;59.01
68145;BME280;55400;51.824;-0.196;2022-09-13T15:24:54;100109.56;;;19.27;59.16
68145;BME280;55400;51.824;-0.196;2022-09-13T15:27:30;100113.38;;;19.24;59.59
68145;BME280;55400;51.824;-0.196;2022-09-13T15:29:59;100107.03;;;19.25;59.48
68145;BME280;55400;51.824;-0.196;2022-09-13T15:32:29;100107.03;;;19.25;59.83
68145;BME280;55400;51.824;-0.196;2022-09-13T15:34:59;100105.22;;;19.26;60.06
68145;BME280;55400;51.824;-0.196;2022-09-13T15:37:36;100077.78;;;19.14;60.12
68145;BME280;55400;51.824;-0.196;2022-09-13T15:40:18;100101.97;;;19.22;59.54
68145;BME280;55400;51.824;-0.196;2022-09-13T15:42:46;100085.38;;;19.18;59.96
68145;BME280;55400;51.824;-0.196;2022-09-13T15:45:15;100092.84;;;19.24;60.02
68145;BME280;55400;51.824;-0.196;2022-09-13T15:47:44;100089.03;;;19.17;60.01
68145;BME280;55400;51.824;-0.196;2022-09-13T15:50:25;100081.56;;;19.11;59.96
68145;BME280;55400;51.824;-0.196;2022-09-13T15:52:54;100082.84;;;19.17;60.05
68145;BME280;55400;51.824;-0.196;2022-09-13T15:55:21;100074.28;;;19.13;60.00
68145;BME280;55400;51.824;-0.196;2022-09-13T15:57:48;100085.09;;;19.21;60.07
68145;BME280;55400;51.824;-0.196;2022-09-13T16:00:22;100085.22;;;19.20;60.08
68145;BME280;55400;51.824;-0.196;2022-09-13T16:02:50;100075.38;;;19.20;59.96
68145;BME280;55400;51.824;-0.196;2022-09-13T16:05:17;100068.78;;;19.15;60.00
68145;BME280;55400;51.824;-0.196;2022-09-13T16:07:44;100078.34;;;19.17;59.97
68145;BME280;55400;51.824;-0.196;2022-09-13T16:10:19;100072.56;;;19.12;59.84
68145;BME280;55400;51.824;-0.196;2022-09-13T16:12:47;100067.91;;;19.14;60.17